sensor_id;sensor_type;location;lat;lon;timestamp;temperature;humidity
19809;DHT22;48538;32.784;-96.802;2023-06-10T00:00:01;33.70;99.90
19809;DHT22;48538;32.784;-96.802;2023-06-10T00:02:28;33.70;99.90
19809;DHT22;48538;32.784;-96.802;2023-06-10T00:04:54;33.80;99.90
19809;DHT22;48538;32.784;-96.802;2023-06-10T00:07:22;33.80;99.90
19809;DHT22;48538;32.784;-96.802;2023-06-10T00:09:49;33.80;99.90
19809;DHT22;48538;32.784;-96.802;2023-06-10T00:12:16;33.70;99.90
19809;DHT22;48538;32.784;-96.802;2023-06-10T00:14:43;33.70;99.90
19809;DHT22;48538;32.784;-96.802;2023-06-10T00:17:10;33.70;99.90
19809;DHT22;48538;32.784;-96.802;2023-06-10T00:19:37;33.70;99.90
19809;DHT22;48538;32.784;-96.802;2023-06-10T00:22:07;33.80;99.90
19809;DHT22;48538;32.784;-96.802;2023-06-10T00:24:35;33.80;99.90
19809;DHT22;48538;32.784;-96.802;2023-06-10T00:27:01;33.80;99.90
19809;DHT22;48538;32.784;-96.802;2023-06-10T00:29:27;33.80;99.90
19809;DHT22;48538;32.784;-96.802;2023-06-10T00:31:54;33.80;99.90
19809;DHT22;48538;32.784;-96.802;2023-06-10T00:34:23;33.80;99.90
19809;DHT22;48538;32.784;-96.802;2023-06-10T00:36:50;33.80;99.90
19809;DHT22;48538;32.784;-96.802;2023-06-10T00:39:16;33.80;99.90
19809;DHT22;48538;32.784;-96.802;2023-06-10T00:41:43;33.70;99.90
19809;DHT22;48538;32.784;-96.802;2023-06-10T00:44:09;33.70;99.90
19809;DHT22;48538;32.784;-96.802;2023-06-10T00:46:35;33.60;99.90
19809;DHT22;48538;32.784;-96.802;2023-06-10T00:49:04;33.50;99.90
19809;DHT22;48538;32.784;-96.802;2023-06-10T00:51:31;33.40;99.90
19809;DHT22;48538;32.784;-96.802;2023-06-10T00:53:58;33.20;99.90
19809;DHT22;48538;32.784;-96.802;2023-06-10T00:56:24;33.20;99.90
19809;DHT22;48538;32.784;-96.802;2023-06-10T00:58:51;33.20;99.90
19809;DHT22;48538;32.784;-96.802;2023-06-10T01:01:18;33.00;99.90
19809;DHT22;48538;32.784;-96.802;2023-06-10T01:03:46;33.00;99.90
19809;DHT22;48538;32.784;-96.802;2023-06-10T01:08:57;32.80;99.90
19809;DHT22;48538;32.784;-96.802;2023-06-10T01:11:34;32.80;99.90
19809;DHT22;48538;32.784;-96.802;2023-06-10T01:14:00;32.70;99.90
19809;DHT22;48538;32.784;-96.802;2023-06-10T01:16:27;32.50;99.90
19809;DHT22;48538;32.784;-96.802;2023-06-10T01:18:54;32.40;99.90
19809;DHT22;48538;32.784;-96.802;2023-06-10T01:21:21;32.30;99.90
19809;DHT22;48538;32.784;-96.802;2023-06-10T01:23:52;32.20;99.90
19809;DHT22;48538;32.784;-96.802;2023-06-10T01:26:20;32.10;99.90
19809;DHT22;48538;32.784;-96.802;2023-06-10T01:28:53;31.90;99.90
19809;DHT22;48538;32.784;-96.802;2023-06-10T01:34:05;31.60;99.90
19809;DHT22;48538;32.784;-96.802;2023-06-10T01:36:35;31.50;99.90
19809;DHT22;48538;32.784;-96.802;2023-06-10T01:39:03;31.40;99.90
19809;DHT22;48538;32.784;-96.802;2023-06-10T01:41:30;31.30;99.90
19809;DHT22;48538;32.784;-96.802;2023-06-10T01:43:56;31.20;99.90
19809;DHT22;48538;32.784;-96.802;2023-06-10T01:46:23;31.10;99.90
19809;DHT22;48538;32.784;-96.802;2023-06-10T01:48:49;31.00;99.90
19809;DHT22;48538;32.784;-96.802;2023-06-10T01:51:16;30.90;99.90
19809;DHT22;48538;32.784;-96.802;2023-06-10T01:53:42;30.80;99.90
19809;DHT22;48538;32.784;-96.802;2023-06-10T01:56:08;30.70;99.90
19809;DHT22;48538;32.784;-96.802;2023-06-10T01:58:35;30.60;99.90
19809;DHT22;48538;32.784;-96.802;2023-06-10T02:01:01;30.50;99.90
19809;DHT22;48538;32.784;-96.802;2023-06-10T02:03:28;30.40;99.90
19809;DHT22;48538;32.784;-96.802;2023-06-10T02:05:54;30.30;99.90
19809;DHT22;48538;32.784;-96.802;2023-06-10T02:08:20;30.30;99.90
19809;DHT22;48538;32.784;-96.802;2023-06-10T02:10:47;30.30;99.90
19809;DHT22;48538;32.784;-96.802;2023-06-10T02:13:13;30.20;99.90
19809;DHT22;48538;32.784;-96.802;2023-06-10T02:15:39;30.10;99.90
19809;DHT22;48538;32.784;-96.802;2023-06-10T02:18:06;30.00;99.90
19809;DHT22;48538;32.784;-96.802;2023-06-10T02:20:32;30.00;99.90
19809;DHT22;48538;32.784;-96.802;2023-06-10T02:22:59;30.00;99.90
19809;DHT22;48538;32.784;-96.802;2023-06-10T02:25:26;29.90;99.90
19809;DHT22;48538;32.784;-96.802;2023-06-10T02:27:52;29.80;99.90
19809;DHT22;48538;32.784;-96.802;2023-06-10T02:30:18;29.70;99.90
19809;DHT22;48538;32.784;-96.802;2023-06-10T02:32:45;29.70;99.90
19809;DHT22;48538;32.784;-96.802;2023-06-10T02:35:14;29.70;99.90
19809;DHT22;48538;32.784;-96.802;2023-06-10T02:37:41;29.60;99.90
19809;DHT22;48538;32.784;-96.802;2023-06-10T02:40:08;29.60;99.90
19809;DHT22;48538;32.784;-96.802;2023-06-10T02:42:34;29.50;99.90
19809;DHT22;48538;32.784;-96.802;2023-06-10T02:45:00;29.50;99.90
19809;DHT22;48538;32.784;-96.802;2023-06-10T02:47:27;29.50;99.90
19809;DHT22;48538;32.784;-96.802;2023-06-10T02:49:53;29.40;99.90
19809;DHT22;48538;32.784;-96.802;2023-06-10T02:52:19;29.40;99.90
19809;DHT22;48538;32.784;-96.802;2023-06-10T02:54:46;29.30;99.90
19809;DHT22;48538;32.784;-96.802;2023-06-10T02:57:12;29.30;99.90
19809;DHT22;48538;32.784;-96.802;2023-06-10T02:59:40;29.20;99.90
19809;DHT22;48538;32.784;-96.802;2023-06-10T03:02:06;29.20;99.90
19809;DHT22;48538;32.784;-96.802;2023-06-10T03:04:33;29.20;99.90
19809;DHT22;48538;32.784;-96.802;2023-06-10T03:06:59;29.10;99.90
19809;DHT22;48538;32.784;-96.802;2023-06-10T03:09:29;29.20;99.90
19809;DHT22;48538;32.784;-96.802;2023-06-10T03:11:55;29.20;99.90
19809;DHT22;48538;32.784;-96.802;2023-06-10T03:14:22;29.10;99.90
19809;DHT22;48538;32.784;-96.802;2023-06-10T03:16:48;29.10;99.90
19809;DHT22;48538;32.784;-96.802;2023-06-10T03:19:14;29.10;99.90
19809;DHT22;48538;32.784;-96.802;2023-06-10T03:21:44;29.00;99.90
19809;DHT22;48538;32.784;-96.802;2023-06-10T03:24:10;29.00;99.90
19809;DHT22;48538;32.784;-96.802;2023-06-10T03:26:37;29.00;99.90
19809;DHT22;48538;32.784;-96.802;2023-06-10T03:29:03;28.90;99.90
19809;DHT22;48538;32.784;-96.802;2023-06-10T03:31:30;28.90;99.90
19809;DHT22;48538;32.784;-96.802;2023-06-10T03:33:56;29.00;99.90
19809;DHT22;48538;32.784;-96.802;2023-06-10T03:36:24;28.90;99.90
19809;DHT22;48538;32.784;-96.802;2023-06-10T03:38:50;28.90;99.90
19809;DHT22;48538;32.784;-96.802;2023-06-10T03:41:18;28.80;99.90
19809;DHT22;48538;32.784;-96.802;2023-06-10T03:43:44;28.80;99.90
19809;DHT22;48538;32.784;-96.802;2023-06-10T03:46:10;28.80;99.90
19809;DHT22;48538;32.784;-96.802;2023-06-10T03:48:37;28.70;99.90
19809;DHT22;48538;32.784;-96.802;2023-06-10T03:51:04;28.80;99.90
19809;DHT22;48538;32.784;-96.802;2023-06-10T03:53:30;28.70;99.90
19809;DHT22;48538;32.784;-96.802;2023-06-10T03:55:57;28.70;99.90
19809;DHT22;48538;32.784;-96.802;2023-06-10T03:58:23;28.70;99.90
19809;DHT22;48538;32.784;-96.802;2023-06-10T04:00:49;28.70;99.90
19809;DHT22;48538;32.784;-96.802;2023-06-10T04:03:16;28.60;99.90
19809;DHT22;48538;32.784;-96.802;2023-06-10T04:05:42;28.60;99.90
19809;DHT22;48538;32.784;-96.802;2023-06-10T04:08:08;28.50;99.90
19809;DHT22;48538;32.784;-96.802;2023-06-10T04:10:35;28.50;99.90
19809;DHT22;48538;32.784;-96.802;2023-06-10T04:13:02;28.50;99.90
19809;DHT22;48538;32.784;-96.802;2023-06-10T04:15:29;28.40;99.90
19809;DHT22;48538;32.784;-96.802;2023-06-10T04:17:58;28.50;99.90
19809;DHT22;48538;32.784;-96.802;2023-06-10T04:20:25;28.40;99.90
19809;DHT22;48538;32.784;-96.802;2023-06-10T04:22:52;28.40;99.90
19809;DHT22;48538;32.784;-96.802;2023-06-10T04:25:18;28.40;99.90
19809;DHT22;48538;32.784;-96.802;2023-06-10T04:27:44;28.30;99.90
19809;DHT22;48538;32.784;-96.802;2023-06-10T04:30:11;28.30;99.90
19809;DHT22;48538;32.784;-96.802;2023-06-10T04:32:38;28.30;99.90
19809;DHT22;48538;32.784;-96.802;2023-06-10T04:35:05;28.30;99.90
19809;DHT22;48538;32.784;-96.802;2023-06-10T04:37:31;28.30;99.90
19809;DHT22;48538;32.784;-96.802;2023-06-10T04:39:58;28.20;99.90
19809;DHT22;48538;32.784;-96.802;2023-06-10T04:42:25;28.20;99.90
19809;DHT22;48538;32.784;-96.802;2023-06-10T04:44:51;28.20;99.90
19809;DHT22;48538;32.784;-96.802;2023-06-10T04:47:17;28.10;99.90
19809;DHT22;48538;32.784;-96.802;2023-06-10T04:49:43;28.00;99.90
19809;DHT22;48538;32.784;-96.802;2023-06-10T04:52:10;28.10;99.90
19809;DHT22;48538;32.784;-96.802;2023-06-10T04:54:36;28.10;99.90
19809;DHT22;48538;32.784;-96.802;2023-06-10T04:57:03;28.10;99.90
19809;DHT22;48538;32.784;-96.802;2023-06-10T04:59:29;28.10;99.90
19809;DHT22;48538;32.784;-96.802;2023-06-10T05:01:55;28.00;99.90
19809;DHT22;48538;32.784;-96.802;2023-06-10T05:04:22;28.00;99.90
19809;DHT22;48538;32.784;-96.802;2023-06-10T05:06:49;28.00;99.90
19809;DHT22;48538;32.784;-96.802;2023-06-10T05:09:15;28.00;99.90
19809;DHT22;48538;32.784;-96.802;2023-06-10T05:11:42;28.00;99.90
19809;DHT22;48538;32.784;-96.802;2023-06-10T05:14:08;27.90;99.90
19809;DHT22;48538;32.784;-96.802;2023-06-10T05:16:35;28.00;99.90
19809;DHT22;48538;32.784;-96.802;2023-06-10T05:19:01;27.90;99.90
19809;DHT22;48538;32.784;-96.802;2023-06-10T05:21:27;27.90;99.90
19809;DHT22;48538;32.784;-96.802;2023-06-10T05:23:53;27.80;99.90
19809;DHT22;48538;32.784;-96.802;2023-06-10T05:26:20;27.80;99.90
19809;DHT22;48538;32.784;-96.802;2023-06-10T05:28:47;27.80;99.90
19809;DHT22;48538;32.784;-96.802;2023-06-10T05:31:13;27.80;99.90
19809;DHT22;48538;32.784;-96.802;2023-06-10T05:33:40;27.80;99.90
19809;DHT22;48538;32.784;-96.802;2023-06-10T05:36:06;27.80;99.90
19809;DHT22;48538;32.784;-96.802;2023-06-10T05:38:32;27.80;99.90
19809;DHT22;48538;32.784;-96.802;2023-06-10T05:40:58;27.70;99.90
19809;DHT22;48538;32.784;-96.802;2023-06-10T05:43:25;27.70;99.90
19809;DHT22;48538;32.784;-96.802;2023-06-10T05:45:51;27.80;99.90
19809;DHT22;48538;32.784;-96.802;2023-06-10T05:48:18;27.70;99.90
19809;DHT22;48538;32.784;-96.802;2023-06-10T05:50:45;27.70;99.90
19809;DHT22;48538;32.784;-96.802;2023-06-10T05:53:16;27.70;99.90
19809;DHT22;48538;32.784;-96.802;2023-06-10T05:55:44;27.70;99.90
19809;DHT22;48538;32.784;-96.802;2023-06-10T05:58:11;27.70;99.90
19809;DHT22;48538;32.784;-96.802;2023-06-10T06:00:41;27.70;99.90
19809;DHT22;48538;32.784;-96.802;2023-06-10T06:03:08;27.70;99.90
19809;DHT22;48538;32.784;-96.802;2023-06-10T06:05:34;27.70;99.90
19809;DHT22;48538;32.784;-96.802;2023-06-10T06:08:04;27.60;99.90
19809;DHT22;48538;32.784;-96.802;2023-06-10T06:10:30;27.60;99.90
19809;DHT22;48538;32.784;-96.802;2023-06-10T06:12:57;27.60;99.90
19809;DHT22;48538;32.784;-96.802;2023-06-10T06:15:23;27.60;99.90
19809;DHT22;48538;32.784;-96.802;2023-06-10T06:17:49;27.60;99.90
19809;DHT22;48538;32.784;-96.802;2023-06-10T06:20:21;27.70;99.90
19809;DHT22;48538;32.784;-96.802;2023-06-10T06:22:48;27.60;99.90
19809;DHT22;48538;32.784;-96.802;2023-06-10T06:25:15;27.60;99.90
19809;DHT22;48538;32.784;-96.802;2023-06-10T06:27:41;27.60;99.90
19809;DHT22;48538;32.784;-96.802;2023-06-10T06:30:08;27.60;99.90
19809;DHT22;48538;32.784;-96.802;2023-06-10T06:32:34;27.60;99.90
19809;DHT22;48538;32.784;-96.802;2023-06-10T06:35:00;27.60;99.90
19809;DHT22;48538;32.784;-96.802;2023-06-10T06:37:27;27.50;99.90
19809;DHT22;48538;32.784;-96.802;2023-06-10T06:39:53;27.60;99.90
19809;DHT22;48538;32.784;-96.802;2023-06-10T06:42:22;27.60;99.90
19809;DHT22;48538;32.784;-96.802;2023-06-10T06:44:49;27.60;99.90
19809;DHT22;48538;32.784;-96.802;2023-06-10T06:47:15;27.60;99.90
19809;DHT22;48538;32.784;-96.802;2023-06-10T06:49:48;27.50;99.90
19809;DHT22;48538;32.784;-96.802;2023-06-10T06:52:15;27.50;99.90
19809;DHT22;48538;32.784;-96.802;2023-06-10T06:54:41;27.50;99.90
19809;DHT22;48538;32.784;-96.802;2023-06-10T06:57:08;27.50;99.90
19809;DHT22;48538;32.784;-96.802;2023-06-10T06:59:34;27.50;99.90
19809;DHT22;48538;32.784;-96.802;2023-06-10T07:02:00;27.50;99.90
19809;DHT22;48538;32.784;-96.802;2023-06-10T07:04:27;27.50;99.90
19809;DHT22;48538;32.784;-96.802;2023-06-10T07:06:53;27.50;99.90
19809;DHT22;48538;32.784;-96.802;2023-06-10T07:09:19;27.50;99.90
19809;DHT22;48538;32.784;-96.802;2023-06-10T07:11:45;27.50;99.90
19809;DHT22;48538;32.784;-96.802;2023-06-10T07:14:12;27.40;99.90
19809;DHT22;48538;32.784;-96.802;2023-06-10T07:16:38;27.40;99.90
19809;DHT22;48538;32.784;-96.802;2023-06-10T07:19:04;27.40;99.90
19809;DHT22;48538;32.784;-96.802;2023-06-10T07:21:31;27.40;99.90
19809;DHT22;48538;32.784;-96.802;2023-06-10T07:23:58;27.50;99.90
19809;DHT22;48538;32.784;-96.802;2023-06-10T07:26:24;27.40;99.90
19809;DHT22;48538;32.784;-96.802;2023-06-10T07:28:51;27.40;99.90
19809;DHT22;48538;32.784;-96.802;2023-06-10T07:31:18;27.40;99.90
19809;DHT22;48538;32.784;-96.802;2023-06-10T07:33:44;27.40;99.90
19809;DHT22;48538;32.784;-96.802;2023-06-10T07:36:10;27.40;99.90
19809;DHT22;48538;32.784;-96.802;2023-06-10T07:38:37;27.40;99.90
19809;DHT22;48538;32.784;-96.802;2023-06-10T07:41:03;27.40;99.90
19809;DHT22;48538;32.784;-96.802;2023-06-10T07:43:30;27.30;99.90
19809;DHT22;48538;32.784;-96.802;2023-06-10T07:45:56;27.30;99.90
19809;DHT22;48538;32.784;-96.802;2023-06-10T07:48:23;27.30;99.90
19809;DHT22;48538;32.784;-96.802;2023-06-10T07:50:49;27.20;99.90
19809;DHT22;48538;32.784;-96.802;2023-06-10T07:53:15;27.30;99.90
19809;DHT22;48538;32.784;-96.802;2023-06-10T07:55:41;27.30;99.90
19809;DHT22;48538;32.784;-96.802;2023-06-10T07:58:08;27.20;99.90
19809;DHT22;48538;32.784;-96.802;2023-06-10T08:00:34;27.20;99.90
19809;DHT22;48538;32.784;-96.802;2023-06-10T08:03:00;27.20;99.90
19809;DHT22;48538;32.784;-96.802;2023-06-10T08:05:27;27.20;99.90
19809;DHT22;48538;32.784;-96.802;2023-06-10T08:07:53;27.20;99.90
19809;DHT22;48538;32.784;-96.802;2023-06-10T08:10:19;27.10;99.90
19809;DHT22;48538;32.784;-96.802;2023-06-10T08:12:45;27.20;99.90
19809;DHT22;48538;32.784;-96.802;2023-06-10T08:15:12;27.20;99.90
19809;DHT22;48538;32.784;-96.802;2023-06-10T08:17:38;27.20;99.90
19809;DHT22;48538;32.784;-96.802;2023-06-10T08:20:06;27.10;99.90
19809;DHT22;48538;32.784;-96.802;2023-06-10T08:22:32;27.10;99.90
19809;DHT22;48538;32.784;-96.802;2023-06-10T08:24:59;27.10;99.90
19809;DHT22;48538;32.784;-96.802;2023-06-10T08:27:25;27.10;99.90
19809;DHT22;48538;32.784;-96.802;2023-06-10T08:29:52;27.10;99.90
19809;DHT22;48538;32.784;-96.802;2023-06-10T08:32:18;27.10;99.90
19809;DHT22;48538;32.784;-96.802;2023-06-10T08:34:45;27.00;99.90
19809;DHT22;48538;32.784;-96.802;2023-06-10T08:37:11;27.00;99.90
19809;DHT22;48538;32.784;-96.802;2023-06-10T08:39:37;27.00;99.90
19809;DHT22;48538;32.784;-96.802;2023-06-10T08:44:42;26.90;99.90
19809;DHT22;48538;32.784;-96.802;2023-06-10T08:47:16;26.90;99.90
19809;DHT22;48538;32.784;-96.802;2023-06-10T08:49:47;26.90;99.90
19809;DHT22;48538;32.784;-96.802;2023-06-10T08:52:20;26.90;99.90
19809;DHT22;48538;32.784;-96.802;2023-06-10T08:54:57;26.90;99.90
19809;DHT22;48538;32.784;-96.802;2023-06-10T08:57:26;26.80;99.90
19809;DHT22;48538;32.784;-96.802;2023-06-10T08:59:55;26.80;99.90
19809;DHT22;48538;32.784;-96.802;2023-06-10T09:02:23;26.80;99.90
19809;DHT22;48538;32.784;-96.802;2023-06-10T09:04:51;26.70;99.90
19809;DHT22;48538;32.784;-96.802;2023-06-10T09:07:19;26.70;99.90
19809;DHT22;48538;32.784;-96.802;2023-06-10T09:09:45;26.70;99.90
19809;DHT22;48538;32.784;-96.802;2023-06-10T09:12:15;26.60;99.90
19809;DHT22;48538;32.784;-96.802;2023-06-10T09:14:42;26.70;99.90
19809;DHT22;48538;32.784;-96.802;2023-06-10T09:17:09;26.70;99.90
19809;DHT22;48538;32.784;-96.802;2023-06-10T09:19:35;26.70;99.90
19809;DHT22;48538;32.784;-96.802;2023-06-10T09:22:02;26.70;99.90
19809;DHT22;48538;32.784;-96.802;2023-06-10T09:24:29;26.70;99.90
19809;DHT22;48538;32.784;-96.802;2023-06-10T09:27:06;26.60;99.90
19809;DHT22;48538;32.784;-96.802;2023-06-10T09:29:53;26.60;99.90
19809;DHT22;48538;32.784;-96.802;2023-06-10T09:32:20;26.60;99.90
19809;DHT22;48538;32.784;-96.802;2023-06-10T09:34:48;26.60;99.90
19809;DHT22;48538;32.784;-96.802;2023-06-10T09:37:21;26.60;99.90
19809;DHT22;48538;32.784;-96.802;2023-06-10T09:40:07;26.50;99.90
19809;DHT22;48538;32.784;-96.802;2023-06-10T09:42:36;26.60;99.90
19809;DHT22;48538;32.784;-96.802;2023-06-10T09:45:04;26.50;99.90
19809;DHT22;48538;32.784;-96.802;2023-06-10T09:47:31;26.60;99.90
19809;DHT22;48538;32.784;-96.802;2023-06-10T09:49:57;26.50;99.90
19809;DHT22;48538;32.784;-96.802;2023-06-10T09:52:24;26.50;99.90
19809;DHT22;48538;32.784;-96.802;2023-06-10T09:54:52;26.50;99.90
19809;DHT22;48538;32.784;-96.802;2023-06-10T09:57:20;26.50;99.90
19809;DHT22;48538;32.784;-96.802;2023-06-10T09:59:47;26.40;99.90
19809;DHT22;48538;32.784;-96.802;2023-06-10T10:02:15;26.40;99.90
19809;DHT22;48538;32.784;-96.802;2023-06-10T10:04:45;26.50;99.90
19809;DHT22;48538;32.784;-96.802;2023-06-10T10:07:12;26.50;99.90
19809;DHT22;48538;32.784;-96.802;2023-06-10T10:09:39;26.40;99.90
19809;DHT22;48538;32.784;-96.802;2023-06-10T10:12:13;26.50;99.90
19809;DHT22;48538;32.784;-96.802;2023-06-10T10:14:45;26.40;99.90
19809;DHT22;48538;32.784;-96.802;2023-06-10T10:17:14;26.40;99.90
19809;DHT22;48538;32.784;-96.802;2023-06-10T10:19:48;26.40;99.90
19809;DHT22;48538;32.784;-96.802;2023-06-10T10:22:20;26.40;99.90
19809;DHT22;48538;32.784;-96.802;2023-06-10T10:24:51;26.40;99.90
19809;DHT22;48538;32.784;-96.802;2023-06-10T10:27:36;26.40;99.90
19809;DHT22;48538;32.784;-96.802;2023-06-10T10:30:06;26.30;99.90
19809;DHT22;48538;32.784;-96.802;2023-06-10T10:32:40;26.30;99.90
19809;DHT22;48538;32.784;-96.802;2023-06-10T10:35:12;26.40;99.90
19809;DHT22;48538;32.784;-96.802;2023-06-10T10:37:39;26.30;99.90
19809;DHT22;48538;32.784;-96.802;2023-06-10T10:40:07;26.30;99.90
19809;DHT22;48538;32.784;-96.802;2023-06-10T10:42:35;26.30;99.90
19809;DHT22;48538;32.784;-96.802;2023-06-10T10:45:02;26.30;99.90
19809;DHT22;48538;32.784;-96.802;2023-06-10T10:47:31;26.30;99.90
19809;DHT22;48538;32.784;-96.802;2023-06-10T10:49:59;26.30;99.90
19809;DHT22;48538;32.784;-96.802;2023-06-10T10:52:26;26.30;99.90
19809;DHT22;48538;32.784;-96.802;2023-06-10T10:54:53;26.30;99.90
19809;DHT22;48538;32.784;-96.802;2023-06-10T10:57:24;26.30;99.90
19809;DHT22;48538;32.784;-96.802;2023-06-10T10:59:56;26.30;99.90
19809;DHT22;48538;32.784;-96.802;2023-06-10T11:02:35;26.30;99.90
19809;DHT22;48538;32.784;-96.802;2023-06-10T11:05:05;26.30;99.90
19809;DHT22;48538;32.784;-96.802;2023-06-10T11:07:33;26.30;99.90
19809;DHT22;48538;32.784;-96.802;2023-06-10T11:10:02;26.30;99.90
19809;DHT22;48538;32.784;-96.802;2023-06-10T11:15:13;26.30;99.90
19809;DHT22;48538;32.784;-96.802;2023-06-10T11:18:07;26.30;99.90
19809;DHT22;48538;32.784;-96.802;2023-06-10T11:31:21;26.30;99.90
19809;DHT22;48538;32.784;-96.802;2023-06-10T11:33:52;26.30;99.90
19809;DHT22;48538;32.784;-96.802;2023-06-10T11:36:18;26.30;99.90
19809;DHT22;48538;32.784;-96.802;2023-06-10T11:38:44;26.30;99.90
19809;DHT22;48538;32.784;-96.802;2023-06-10T11:41:17;26.30;99.90
19809;DHT22;48538;32.784;-96.802;2023-06-10T11:43:45;26.30;99.90
19809;DHT22;48538;32.784;-96.802;2023-06-10T11:46:12;26.30;99.90
19809;DHT22;48538;32.784;-96.802;2023-06-10T11:48:39;26.30;99.90
19809;DHT22;48538;32.784;-96.802;2023-06-10T11:51:06;26.30;99.90
19809;DHT22;48538;32.784;-96.802;2023-06-10T11:53:34;26.30;99.90
19809;DHT22;48538;32.784;-96.802;2023-06-10T11:56:01;26.30;99.90
19809;DHT22;48538;32.784;-96.802;2023-06-10T11:58:27;26.30;99.90
19809;DHT22;48538;32.784;-96.802;2023-06-10T12:00:54;26.30;99.90
19809;DHT22;48538;32.784;-96.802;2023-06-10T12:03:24;26.30;99.90
19809;DHT22;48538;32.784;-96.802;2023-06-10T12:06:05;26.30;99.90
19809;DHT22;48538;32.784;-96.802;2023-06-10T12:08:32;26.40;99.90
19809;DHT22;48538;32.784;-96.802;2023-06-10T12:10:59;26.40;99.90
19809;DHT22;48538;32.784;-96.802;2023-06-10T12:13:28;26.40;99.90
19809;DHT22;48538;32.784;-96.802;2023-06-10T12:15:55;26.40;99.90
19809;DHT22;48538;32.784;-96.802;2023-06-10T12:18:31;26.40;99.90
19809;DHT22;48538;32.784;-96.802;2023-06-10T12:20:58;26.50;99.90
19809;DHT22;48538;32.784;-96.802;2023-06-10T12:23:25;26.60;99.90
19809;DHT22;48538;32.784;-96.802;2023-06-10T12:25:55;26.60;99.90
19809;DHT22;48538;32.784;-96.802;2023-06-10T12:28:26;26.60;99.90
19809;DHT22;48538;32.784;-96.802;2023-06-10T12:31:07;26.70;99.90
19809;DHT22;48538;32.784;-96.802;2023-06-10T12:33:33;26.70;99.90
19809;DHT22;48538;32.784;-96.802;2023-06-10T12:35:59;26.80;99.90
19809;DHT22;48538;32.784;-96.802;2023-06-10T12:38:26;26.90;99.90
19809;DHT22;48538;32.784;-96.802;2023-06-10T12:41:05;26.90;99.90
19809;DHT22;48538;32.784;-96.802;2023-06-10T12:43:31;27.00;99.90
19809;DHT22;48538;32.784;-96.802;2023-06-10T12:46:09;27.10;99.90
19809;DHT22;48538;32.784;-96.802;2023-06-10T12:48:35;27.20;99.90
19809;DHT22;48538;32.784;-96.802;2023-06-10T12:51:01;27.30;99.90
19809;DHT22;48538;32.784;-96.802;2023-06-10T12:53:28;27.30;99.90
19809;DHT22;48538;32.784;-96.802;2023-06-10T12:55:54;27.40;99.90
19809;DHT22;48538;32.784;-96.802;2023-06-10T12:58:21;27.40;99.90
19809;DHT22;48538;32.784;-96.802;2023-06-10T13:00:49;27.50;99.90
19809;DHT22;48538;32.784;-96.802;2023-06-10T13:03:18;27.50;99.90
19809;DHT22;48538;32.784;-96.802;2023-06-10T13:05:44;27.60;99.90
19809;DHT22;48538;32.784;-96.802;2023-06-10T13:08:11;27.70;99.90
19809;DHT22;48538;32.784;-96.802;2023-06-10T13:10:37;27.70;99.90
19809;DHT22;48538;32.784;-96.802;2023-06-10T13:13:04;27.80;99.90
19809;DHT22;48538;32.784;-96.802;2023-06-10T13:15:33;27.90;99.90
19809;DHT22;48538;32.784;-96.802;2023-06-10T13:18:03;28.10;99.90
19809;DHT22;48538;32.784;-96.802;2023-06-10T13:20:30;28.10;99.90
19809;DHT22;48538;32.784;-96.802;2023-06-10T13:22:57;28.20;99.90
19809;DHT22;48538;32.784;-96.802;2023-06-10T13:25:23;28.30;99.90
19809;DHT22;48538;32.784;-96.802;2023-06-10T13:27:49;28.40;99.90
19809;DHT22;48538;32.784;-96.802;2023-06-10T13:30:16;28.40;99.90
19809;DHT22;48538;32.784;-96.802;2023-06-10T13:32:42;28.50;99.90
19809;DHT22;48538;32.784;-96.802;2023-06-10T13:35:08;28.60;99.90
19809;DHT22;48538;32.784;-96.802;2023-06-10T13:37:35;28.60;99.90
19809;DHT22;48538;32.784;-96.802;2023-06-10T13:40:02;28.70;99.90
19809;DHT22;48538;32.784;-96.802;2023-06-10T13:42:28;28.70;99.90
19809;DHT22;48538;32.784;-96.802;2023-06-10T13:44:55;28.70;99.90
19809;DHT22;48538;32.784;-96.802;2023-06-10T13:47:22;28.70;99.90
19809;DHT22;48538;32.784;-96.802;2023-06-10T13:49:48;28.80;99.90
19809;DHT22;48538;32.784;-96.802;2023-06-10T13:52:15;28.70;99.90
19809;DHT22;48538;32.784;-96.802;2023-06-10T13:54:41;28.80;99.90
19809;DHT22;48538;32.784;-96.802;2023-06-10T13:57:07;28.80;99.90
19809;DHT22;48538;32.784;-96.802;2023-06-10T13:59:35;28.80;99.90
19809;DHT22;48538;32.784;-96.802;2023-06-10T14:02:02;28.90;99.90
19809;DHT22;48538;32.784;-96.802;2023-06-10T14:04:28;29.00;99.90
19809;DHT22;48538;32.784;-96.802;2023-06-10T14:06:54;29.00;99.90
19809;DHT22;48538;32.784;-96.802;2023-06-10T14:09:21;29.00;99.90
19809;DHT22;48538;32.784;-96.802;2023-06-10T14:11:47;29.00;99.90
19809;DHT22;48538;32.784;-96.802;2023-06-10T14:14:14;29.10;99.90
19809;DHT22;48538;32.784;-96.802;2023-06-10T14:16:40;29.10;99.90
19809;DHT22;48538;32.784;-96.802;2023-06-10T14:19:07;29.20;99.90
19809;DHT22;48538;32.784;-96.802;2023-06-10T14:21:33;29.30;99.90
19809;DHT22;48538;32.784;-96.802;2023-06-10T14:23:59;29.20;99.90
19809;DHT22;48538;32.784;-96.802;2023-06-10T14:26:25;29.30;99.90
19809;DHT22;48538;32.784;-96.802;2023-06-10T14:28:52;29.40;99.90
19809;DHT22;48538;32.784;-96.802;2023-06-10T14:31:18;29.40;99.90
19809;DHT22;48538;32.784;-96.802;2023-06-10T14:33:44;29.50;99.90
19809;DHT22;48538;32.784;-96.802;2023-06-10T14:36:11;29.50;99.90
19809;DHT22;48538;32.784;-96.802;2023-06-10T14:38:37;29.60;99.90
19809;DHT22;48538;32.784;-96.802;2023-06-10T14:41:04;29.70;99.90
19809;DHT22;48538;32.784;-96.802;2023-06-10T14:43:30;29.70;99.90
19809;DHT22;48538;32.784;-96.802;2023-06-10T14:45:57;29.80;99.90
19809;DHT22;48538;32.784;-96.802;2023-06-10T14:48:23;29.80;99.90
19809;DHT22;48538;32.784;-96.802;2023-06-10T14:50:49;29.90;99.90
19809;DHT22;48538;32.784;-96.802;2023-06-10T14:53:17;29.90;99.90
19809;DHT22;48538;32.784;-96.802;2023-06-10T14:55:44;29.90;99.90
19809;DHT22;48538;32.784;-96.802;2023-06-10T14:58:10;29.90;99.90
19809;DHT22;48538;32.784;-96.802;2023-06-10T15:00:37;29.90;99.90
19809;DHT22;48538;32.784;-96.802;2023-06-10T15:03:03;29.80;99.90
19809;DHT22;48538;32.784;-96.802;2023-06-10T15:05:29;29.90;99.90
19809;DHT22;48538;32.784;-96.802;2023-06-10T15:07:55;29.80;99.90
19809;DHT22;48538;32.784;-96.802;2023-06-10T15:10:22;29.80;99.90
19809;DHT22;48538;32.784;-96.802;2023-06-10T15:12:48;29.70;99.90
19809;DHT22;48538;32.784;-96.802;2023-06-10T15:15:22;29.70;99.90
19809;DHT22;48538;32.784;-96.802;2023-06-10T15:17:49;29.70;99.90
19809;DHT22;48538;32.784;-96.802;2023-06-10T15:20:15;29.70;99.90
19809;DHT22;48538;32.784;-96.802;2023-06-10T15:22:41;29.70;99.90
19809;DHT22;48538;32.784;-96.802;2023-06-10T15:25:08;29.70;99.90